sensor_id;sensor_type;location;lat;lon;timestamp;P1;durP1;ratioP1;P2;durP2;ratioP2
28176;SDS011;15461;41.652;9.378;2022-08-19T00:01:12;11.75;;;2.95;;
28176;SDS011;15461;41.652;9.378;2022-08-19T00:03:38;8.20;;;3.15;;
28176;SDS011;15461;41.652;9.378;2022-08-19T00:06:04;8.27;;;3.10;;
28176;SDS011;15461;41.652;9.378;2022-08-19T00:08:30;12.48;;;3.28;;
28176;SDS011;15461;41.652;9.378;2022-08-19T00:10:56;6.28;;;2.65;;
28176;SDS011;15461;41.652;9.378;2022-08-19T00:13:22;7.80;;;2.75;;
28176;SDS011;15461;41.652;9.378;2022-08-19T00:15:48;9.27;;;3.20;;
28176;SDS011;15461;41.652;9.378;2022-08-19T00:18:14;5.40;;;2.45;;
28176;SDS011;15461;41.652;9.378;2022-08-19T00:20:40;8.40;;;3.10;;
28176;SDS011;15461;41.652;9.378;2022-08-19T00:23:06;10.23;;;2.85;;
28176;SDS011;15461;41.652;9.378;2022-08-19T00:25:32;6.10;;;2.80;;
28176;SDS011;15461;41.652;9.378;2022-08-19T00:27:58;4.32;;;2.63;;
28176;SDS011;15461;41.652;9.378;2022-08-19T00:30:25;8.02;;;2.90;;
28176;SDS011;15461;41.652;9.378;2022-08-19T00:32:52;6.80;;;2.83;;
28176;SDS011;15461;41.652;9.378;2022-08-19T00:35:20;5.80;;;2.70;;
28176;SDS011;15461;41.652;9.378;2022-08-19T00:37:47;10.82;;;3.55;;
28176;SDS011;15461;41.652;9.378;2022-08-19T00:40:14;8.63;;;3.00;;
28176;SDS011;15461;41.652;9.378;2022-08-19T00:42:41;8.90;;;3.25;;
28176;SDS011;15461;41.652;9.378;2022-08-19T00:45:14;9.70;;;3.20;;
28176;SDS011;15461;41.652;9.378;2022-08-19T00:47:45;5.22;;;2.72;;
28176;SDS011;15461;41.652;9.378;2022-08-19T00:50:12;12.13;;;3.05;;
28176;SDS011;15461;41.652;9.378;2022-08-19T00:52:41;6.45;;;3.20;;
28176;SDS011;15461;41.652;9.378;2022-08-19T00:55:13;9.05;;;3.05;;
28176;SDS011;15461;41.652;9.378;2022-08-19T00:57:44;8.30;;;3.20;;
28176;SDS011;15461;41.652;9.378;2022-08-19T01:00:17;5.50;;;2.65;;
28176;SDS011;15461;41.652;9.378;2022-08-19T01:02:44;8.70;;;2.75;;
28176;SDS011;15461;41.652;9.378;2022-08-19T01:05:11;4.93;;;2.92;;
28176;SDS011;15461;41.652;9.378;2022-08-19T01:07:40;6.38;;;2.60;;
28176;SDS011;15461;41.652;9.378;2022-08-19T01:10:08;10.75;;;2.95;;
28176;SDS011;15461;41.652;9.378;2022-08-19T01:12:38;3.80;;;2.70;;
28176;SDS011;15461;41.652;9.378;2022-08-19T01:15:05;5.22;;;2.85;;
28176;SDS011;15461;41.652;9.378;2022-08-19T01:17:33;9.75;;;3.00;;
28176;SDS011;15461;41.652;9.378;2022-08-19T01:20:02;8.43;;;3.08;;
28176;SDS011;15461;41.652;9.378;2022-08-19T01:22:37;6.25;;;2.97;;
28176;SDS011;15461;41.652;9.378;2022-08-19T01:25:13;7.25;;;3.35;;
28176;SDS011;15461;41.652;9.378;2022-08-19T01:27:42;7.88;;;3.05;;
28176;SDS011;15461;41.652;9.378;2022-08-19T01:30:10;6.85;;;3.10;;
28176;SDS011;15461;41.652;9.378;2022-08-19T01:32:44;5.75;;;3.17;;
28176;SDS011;15461;41.652;9.378;2022-08-19T01:35:11;7.57;;;3.15;;
28176;SDS011;15461;41.652;9.378;2022-08-19T01:37:43;7.72;;;3.33;;
28176;SDS011;15461;41.652;9.378;2022-08-19T01:40:09;8.68;;;2.90;;
28176;SDS011;15461;41.652;9.378;2022-08-19T01:42:35;5.72;;;3.28;;
28176;SDS011;15461;41.652;9.378;2022-08-19T01:45:02;7.68;;;3.05;;
28176;SDS011;15461;41.652;9.378;2022-08-19T01:47:29;8.13;;;3.47;;
28176;SDS011;15461;41.652;9.378;2022-08-19T01:49:55;8.05;;;3.03;;
28176;SDS011;15461;41.652;9.378;2022-08-19T01:52:23;9.13;;;3.10;;
28176;SDS011;15461;41.652;9.378;2022-08-19T01:54:48;8.90;;;3.50;;
28176;SDS011;15461;41.652;9.378;2022-08-19T01:57:14;6.35;;;3.10;;
28176;SDS011;15461;41.652;9.378;2022-08-19T01:59:41;6.93;;;3.05;;
28176;SDS011;15461;41.652;9.378;2022-08-19T02:02:09;7.88;;;3.42;;
28176;SDS011;15461;41.652;9.378;2022-08-19T02:04:36;7.18;;;3.13;;
28176;SDS011;15461;41.652;9.378;2022-08-19T02:07:06;9.95;;;3.80;;
28176;SDS011;15461;41.652;9.378;2022-08-19T02:09:33;9.73;;;3.35;;
28176;SDS011;15461;41.652;9.378;2022-08-19T02:11:59;10.88;;;3.92;;
28176;SDS011;15461;41.652;9.378;2022-08-19T02:14:25;9.50;;;3.38;;
28176;SDS011;15461;41.652;9.378;2022-08-19T02:16:52;8.40;;;3.35;;
28176;SDS011;15461;41.652;9.378;2022-08-19T02:19:18;10.82;;;3.50;;
28176;SDS011;15461;41.652;9.378;2022-08-19T02:21:44;8.93;;;3.30;;
28176;SDS011;15461;41.652;9.378;2022-08-19T02:24:09;8.10;;;3.38;;
28176;SDS011;15461;41.652;9.378;2022-08-19T02:26:35;13.88;;;3.35;;
28176;SDS011;15461;41.652;9.378;2022-08-19T02:29:02;10.25;;;3.30;;
28176;SDS011;15461;41.652;9.378;2022-08-19T02:31:28;9.60;;;3.25;;
28176;SDS011;15461;41.652;9.378;2022-08-19T02:33:54;12.35;;;3.50;;
28176;SDS011;15461;41.652;9.378;2022-08-19T02:36:21;7.65;;;3.35;;
28176;SDS011;15461;41.652;9.378;2022-08-19T02:38:48;8.73;;;3.63;;
28176;SDS011;15461;41.652;9.378;2022-08-19T02:41:19;11.43;;;3.97;;
28176;SDS011;15461;41.652;9.378;2022-08-19T02:43:46;9.90;;;3.50;;
28176;SDS011;15461;41.652;9.378;2022-08-19T02:46:17;14.73;;;3.58;;
28176;SDS011;15461;41.652;9.378;2022-08-19T02:48:47;9.75;;;3.17;;
28176;SDS011;15461;41.652;9.378;2022-08-19T02:51:21;7.18;;;3.33;;
28176;SDS011;15461;41.652;9.378;2022-08-19T02:53:52;9.27;;;3.55;;
28176;SDS011;15461;41.652;9.378;2022-08-19T02:56:19;7.93;;;3.38;;
28176;SDS011;15461;41.652;9.378;2022-08-19T02:58:46;12.48;;;3.60;;
28176;SDS011;15461;41.652;9.378;2022-08-19T03:01:21;7.00;;;3.15;;
28176;SDS011;15461;41.652;9.378;2022-08-19T03:03:49;8.02;;;3.38;;
28176;SDS011;15461;41.652;9.378;2022-08-19T03:06:16;10.32;;;3.63;;
28176;SDS011;15461;41.652;9.378;2022-08-19T03:08:43;9.82;;;3.38;;
28176;SDS011;15461;41.652;9.378;2022-08-19T03:11:15;9.73;;;3.20;;
28176;SDS011;15461;41.652;9.378;2022-08-19T03:13:47;10.40;;;3.30;;
28176;SDS011;15461;41.652;9.378;2022-08-19T03:16:16;11.45;;;2.80;;
28176;SDS011;15461;41.652;9.378;2022-08-19T03:18:43;6.15;;;2.75;;
28176;SDS011;15461;41.652;9.378;2022-08-19T03:21:14;10.82;;;2.83;;
28176;SDS011;15461;41.652;9.378;2022-08-19T03:23:43;7.35;;;2.50;;
28176;SDS011;15461;41.652;9.378;2022-08-19T03:26:09;12.35;;;3.80;;
28176;SDS011;15461;41.652;9.378;2022-08-19T03:28:35;8.13;;;2.72;;
28176;SDS011;15461;41.652;9.378;2022-08-19T03:31:07;7.78;;;2.70;;
28176;SDS011;15461;41.652;9.378;2022-08-19T03:33:36;7.50;;;3.20;;
28176;SDS011;15461;41.652;9.378;2022-08-19T03:38:35;5.45;;;2.83;;
28176;SDS011;15461;41.652;9.378;2022-08-19T03:41:06;5.93;;;2.70;;
28176;SDS011;15461;41.652;9.378;2022-08-19T03:43:35;8.82;;;3.30;;
28176;SDS011;15461;41.652;9.378;2022-08-19T03:46:06;6.75;;;2.90;;
28176;SDS011;15461;41.652;9.378;2022-08-19T03:48:36;7.93;;;2.80;;
28176;SDS011;15461;41.652;9.378;2022-08-19T03:51:04;6.55;;;2.75;;
28176;SDS011;15461;41.652;9.378;2022-08-19T03:53:31;5.40;;;2.92;;
28176;SDS011;15461;41.652;9.378;2022-08-19T03:55:58;7.43;;;2.80;;
28176;SDS011;15461;41.652;9.378;2022-08-19T03:58:27;5.85;;;2.83;;
28176;SDS011;15461;41.652;9.378;2022-08-19T04:00:55;10.00;;;3.30;;
28176;SDS011;15461;41.652;9.378;2022-08-19T04:03:22;4.20;;;2.78;;
28176;SDS011;15461;41.652;9.378;2022-08-19T04:05:52;6.82;;;3.00;;
28176;SDS011;15461;41.652;9.378;2022-08-19T04:08:18;7.80;;;2.80;;
28176;SDS011;15461;41.652;9.378;2022-08-19T04:10:47;8.65;;;3.25;;
28176;SDS011;15461;41.652;9.378;2022-08-19T04:13:15;9.60;;;2.80;;
28176;SDS011;15461;41.652;9.378;2022-08-19T04:15:42;10.75;;;3.58;;
28176;SDS011;15461;41.652;9.378;2022-08-19T04:18:10;19.52;;;5.43;;
28176;SDS011;15461;41.652;9.378;2022-08-19T04:20:46;10.10;;;3.65;;
28176;SDS011;15461;41.652;9.378;2022-08-19T04:23:13;13.35;;;3.15;;
28176;SDS011;15461;41.652;9.378;2022-08-19T04:25:40;7.63;;;3.13;;
28176;SDS011;15461;41.652;9.378;2022-08-19T04:28:08;5.10;;;3.00;;
28176;SDS011;15461;41.652;9.378;2022-08-19T04:30:40;7.32;;;2.97;;
28176;SDS011;15461;41.652;9.378;2022-08-19T04:33:12;4.88;;;2.63;;
28176;SDS011;15461;41.652;9.378;2022-08-19T04:35:39;7.95;;;3.05;;
28176;SDS011;15461;41.652;9.378;2022-08-19T04:38:07;6.43;;;2.88;;
28176;SDS011;15461;41.652;9.378;2022-08-19T04:40:34;7.72;;;2.78;;
28176;SDS011;15461;41.652;9.378;2022-08-19T04:43:24;6.18;;;2.90;;
28176;SDS011;15461;41.652;9.378;2022-08-19T04:45:49;12.18;;;2.55;;
28176;SDS011;15461;41.652;9.378;2022-08-19T04:48:16;4.75;;;2.72;;
28176;SDS011;15461;41.652;9.378;2022-08-19T04:50:44;5.13;;;2.80;;
28176;SDS011;15461;41.652;9.378;2022-08-19T04:53:10;5.97;;;2.78;;
28176;SDS011;15461;41.652;9.378;2022-08-19T04:55:40;7.32;;;2.70;;
28176;SDS011;15461;41.652;9.378;2022-08-19T04:58:08;5.47;;;2.45;;
28176;SDS011;15461;41.652;9.378;2022-08-19T05:00:37;10.43;;;2.78;;
28176;SDS011;15461;41.652;9.378;2022-08-19T05:03:04;5.50;;;2.53;;
28176;SDS011;15461;41.652;9.378;2022-08-19T05:05:30;8.90;;;2.60;;
28176;SDS011;15461;41.652;9.378;2022-08-19T05:07:57;9.15;;;2.53;;
28176;SDS011;15461;41.652;9.378;2022-08-19T05:10:23;6.05;;;2.80;;
28176;SDS011;15461;41.652;9.378;2022-08-19T05:12:49;5.88;;;2.60;;
28176;SDS011;15461;41.652;9.378;2022-08-19T05:15:15;9.23;;;2.58;;
28176;SDS011;15461;41.652;9.378;2022-08-19T05:17:41;6.85;;;2.47;;
28176;SDS011;15461;41.652;9.378;2022-08-19T05:20:27;10.25;;;2.60;;
28176;SDS011;15461;41.652;9.378;2022-08-19T05:23:11;10.20;;;2.60;;
28176;SDS011;15461;41.652;9.378;2022-08-19T05:25:40;5.63;;;2.10;;
28176;SDS011;15461;41.652;9.378;2022-08-19T05:28:06;6.95;;;2.42;;
28176;SDS011;15461;41.652;9.378;2022-08-19T05:30:32;9.30;;;2.92;;
28176;SDS011;15461;41.652;9.378;2022-08-19T05:32:59;6.90;;;2.42;;
28176;SDS011;15461;41.652;9.378;2022-08-19T05:35:25;9.43;;;2.70;;
28176;SDS011;15461;41.652;9.378;2022-08-19T05:37:51;9.40;;;2.88;;
28176;SDS011;15461;41.652;9.378;2022-08-19T05:40:19;7.45;;;2.50;;
28176;SDS011;15461;41.652;9.378;2022-08-19T05:42:45;7.13;;;2.78;;
28176;SDS011;15461;41.652;9.378;2022-08-19T05:45:11;8.48;;;2.83;;
28176;SDS011;15461;41.652;9.378;2022-08-19T05:47:37;6.72;;;2.40;;
28176;SDS011;15461;41.652;9.378;2022-08-19T05:50:03;5.38;;;2.30;;
28176;SDS011;15461;41.652;9.378;2022-08-19T05:52:30;6.18;;;2.20;;
28176;SDS011;15461;41.652;9.378;2022-08-19T05:54:56;5.90;;;2.42;;
28176;SDS011;15461;41.652;9.378;2022-08-19T05:57:22;9.88;;;2.42;;
28176;SDS011;15461;41.652;9.378;2022-08-19T05:59:48;7.05;;;2.45;;
28176;SDS011;15461;41.652;9.378;2022-08-19T06:02:16;6.03;;;2.30;;
28176;SDS011;15461;41.652;9.378;2022-08-19T06:04:42;9.23;;;2.28;;
28176;SDS011;15461;41.652;9.378;2022-08-19T06:07:08;4.90;;;2.53;;
28176;SDS011;15461;41.652;9.378;2022-08-19T06:09:34;7.22;;;2.85;;
28176;SDS011;15461;41.652;9.378;2022-08-19T06:12:00;8.00;;;2.70;;
28176;SDS011;15461;41.652;9.378;2022-08-19T06:14:29;9.30;;;2.67;;
28176;SDS011;15461;41.652;9.378;2022-08-19T06:16:57;9.77;;;2.78;;
28176;SDS011;15461;41.652;9.378;2022-08-19T06:19:27;7.95;;;2.65;;
28176;SDS011;15461;41.652;9.378;2022-08-19T06:21:58;6.18;;;2.45;;
28176;SDS011;15461;41.652;9.378;2022-08-19T06:24:26;8.10;;;2.67;;
28176;SDS011;15461;41.652;9.378;2022-08-19T06:26:54;9.40;;;2.75;;
28176;SDS011;15461;41.652;9.378;2022-08-19T06:29:22;8.82;;;2.90;;
28176;SDS011;15461;41.652;9.378;2022-08-19T06:31:51;8.90;;;2.90;;
28176;SDS011;15461;41.652;9.378;2022-08-19T06:34:18;8.63;;;2.45;;
28176;SDS011;15461;41.652;9.378;2022-08-19T06:36:46;7.18;;;2.58;;
28176;SDS011;15461;41.652;9.378;2022-08-19T06:39:14;7.03;;;2.55;;
28176;SDS011;15461;41.652;9.378;2022-08-19T06:41:45;9.02;;;3.15;;
28176;SDS011;15461;41.652;9.378;2022-08-19T06:44:16;7.90;;;3.15;;
28176;SDS011;15461;41.652;9.378;2022-08-19T06:46:45;10.00;;;2.70;;
28176;SDS011;15461;41.652;9.378;2022-08-19T06:49:11;9.68;;;3.15;;
28176;SDS011;15461;41.652;9.378;2022-08-19T06:51:42;6.60;;;2.65;;
28176;SDS011;15461;41.652;9.378;2022-08-19T06:54:11;5.70;;;2.80;;
28176;SDS011;15461;41.652;9.378;2022-08-19T06:56:37;5.80;;;2.92;;
28176;SDS011;15461;41.652;9.378;2022-08-19T06:59:07;6.47;;;2.63;;
28176;SDS011;15461;41.652;9.378;2022-08-19T07:01:39;8.53;;;3.10;;
28176;SDS011;15461;41.652;9.378;2022-08-19T07:04:07;9.75;;;2.83;;
28176;SDS011;15461;41.652;9.378;2022-08-19T07:06:34;5.95;;;2.70;;
28176;SDS011;15461;41.652;9.378;2022-08-19T07:09:02;4.20;;;2.60;;
28176;SDS011;15461;41.652;9.378;2022-08-19T07:11:30;9.40;;;2.70;;
28176;SDS011;15461;41.652;9.378;2022-08-19T07:13:57;4.90;;;2.22;;
28176;SDS011;15461;41.652;9.378;2022-08-19T07:16:23;5.28;;;2.55;;
28176;SDS011;15461;41.652;9.378;2022-08-19T07:18:49;5.60;;;2.72;;
28176;SDS011;15461;41.652;9.378;2022-08-19T07:21:17;11.52;;;2.72;;
28176;SDS011;15461;41.652;9.378;2022-08-19T07:23:48;8.85;;;2.60;;
28176;SDS011;15461;41.652;9.378;2022-08-19T07:28:41;5.13;;;2.30;;
28176;SDS011;15461;41.652;9.378;2022-08-19T07:31:12;7.05;;;2.47;;
28176;SDS011;15461;41.652;9.378;2022-08-19T07:33:40;4.97;;;2.42;;
28176;SDS011;15461;41.652;9.378;2022-08-19T07:36:08;10.73;;;2.50;;
28176;SDS011;15461;41.652;9.378;2022-08-19T07:38:38;8.18;;;2.63;;
28176;SDS011;15461;41.652;9.378;2022-08-19T07:41:12;5.57;;;2.20;;
28176;SDS011;15461;41.652;9.378;2022-08-19T07:43:41;9.35;;;2.60;;
28176;SDS011;15461;41.652;9.378;2022-08-19T07:46:09;6.80;;;2.53;;
28176;SDS011;15461;41.652;9.378;2022-08-19T07:48:35;4.60;;;2.30;;
28176;SDS011;15461;41.652;9.378;2022-08-19T07:51:02;10.50;;;3.28;;
28176;SDS011;15461;41.652;9.378;2022-08-19T07:53:31;6.25;;;2.50;;
28176;SDS011;15461;41.652;9.378;2022-08-19T07:56:00;6.50;;;2.35;;
28176;SDS011;15461;41.652;9.378;2022-08-19T07:58:31;6.82;;;2.58;;
28176;SDS011;15461;41.652;9.378;2022-08-19T08:00:59;6.13;;;2.50;;
28176;SDS011;15461;41.652;9.378;2022-08-19T08:03:25;5.18;;;2.17;;
28176;SDS011;15461;41.652;9.378;2022-08-19T08:06:11;5.22;;;2.17;;
28176;SDS011;15461;41.652;9.378;2022-08-19T08:08:57;3.08;;;2.15;;
28176;SDS011;15461;41.652;9.378;2022-08-19T08:11:46;4.68;;;2.35;;
28176;SDS011;15461;41.652;9.378;2022-08-19T08:14:18;7.90;;;2.70;;
28176;SDS011;15461;41.652;9.378;2022-08-19T08:16:49;11.52;;;2.33;;
28176;SDS011;15461;41.652;9.378;2022-08-19T08:19:18;4.40;;;2.50;;
28176;SDS011;15461;41.652;9.378;2022-08-19T08:21:46;3.38;;;2.17;;
28176;SDS011;15461;41.652;9.378;2022-08-19T08:24:12;5.95;;;2.50;;
28176;SDS011;15461;41.652;9.378;2022-08-19T08:26:38;4.82;;;2.58;;
28176;SDS011;15461;41.652;9.378;2022-08-19T08:29:05;11.13;;;2.78;;
28176;SDS011;15461;41.652;9.378;2022-08-19T08:31:34;3.47;;;2.00;;
28176;SDS011;15461;41.652;9.378;2022-08-19T08:34:00;4.78;;;2.30;;
28176;SDS011;15461;41.652;9.378;2022-08-19T08:36:26;5.45;;;2.58;;
28176;SDS011;15461;41.652;9.378;2022-08-19T08:38:52;5.00;;;2.67;;
28176;SDS011;15461;41.652;9.378;2022-08-19T08:43:59;5.15;;;2.45;;
28176;SDS011;15461;41.652;9.378;2022-08-19T08:46:31;6.53;;;3.00;;
28176;SDS011;15461;41.652;9.378;2022-08-19T08:51:59;5.13;;;2.20;;
28176;SDS011;15461;41.652;9.378;2022-08-19T08:54:37;4.80;;;2.17;;
28176;SDS011;15461;41.652;9.378;2022-08-19T08:57:18;3.78;;;2.10;;
28176;SDS011;15461;41.652;9.378;2022-08-19T08:59:50;4.25;;;1.98;;
28176;SDS011;15461;41.652;9.378;2022-08-19T09:02:18;3.67;;;1.90;;
28176;SDS011;15461;41.652;9.378;2022-08-19T09:04:44;3.38;;;1.48;;
28176;SDS011;15461;41.652;9.378;2022-08-19T09:07:25;3.53;;;1.77;;
28176;SDS011;15461;41.652;9.378;2022-08-19T09:10:02;2.72;;;1.70;;
28176;SDS011;15461;41.652;9.378;2022-08-19T09:12:57;3.15;;;1.80;;
28176;SDS011;15461;41.652;9.378;2022-08-19T09:18:04;4.90;;;2.00;;
28176;SDS011;15461;41.652;9.378;2022-08-19T09:20:31;3.72;;;1.90;;
28176;SDS011;15461;41.652;9.378;2022-08-19T09:22:57;3.90;;;1.80;;
28176;SDS011;15461;41.652;9.378;2022-08-19T09:25:24;3.38;;;1.75;;
28176;SDS011;15461;41.652;9.378;2022-08-19T09:27:51;3.83;;;1.80;;
28176;SDS011;15461;41.652;9.378;2022-08-19T09:30:21;3.03;;;1.70;;
28176;SDS011;15461;41.652;9.378;2022-08-19T09:32:52;5.32;;;1.63;;
28176;SDS011;15461;41.652;9.378;2022-08-19T09:35:23;4.70;;;2.00;;
28176;SDS011;15461;41.652;9.378;2022-08-19T09:37:50;6.20;;;2.00;;
28176;SDS011;15461;41.652;9.378;2022-08-19T09:40:17;5.00;;;1.88;;
28176;SDS011;15461;41.652;9.378;2022-08-19T09:42:43;3.40;;;1.80;;
28176;SDS011;15461;41.652;9.378;2022-08-19T09:45:12;4.75;;;2.20;;
28176;SDS011;15461;41.652;9.378;2022-08-19T09:47:43;5.70;;;2.30;;
28176;SDS011;15461;41.652;9.378;2022-08-19T09:50:09;5.28;;;1.95;;
28176;SDS011;15461;41.652;9.378;2022-08-19T09:52:37;4.93;;;2.22;;
28176;SDS011;15461;41.652;9.378;2022-08-19T09:55:05;4.00;;;2.03;;
28176;SDS011;15461;41.652;9.378;2022-08-19T09:57:33;5.47;;;2.55;;
28176;SDS011;15461;41.652;9.378;2022-08-19T09:59:59;6.63;;;2.45;;
28176;SDS011;15461;41.652;9.378;2022-08-19T10:02:26;6.32;;;2.70;;
28176;SDS011;15461;41.652;9.378;2022-08-19T10:04:52;5.50;;;2.47;;
28176;SDS011;15461;41.652;9.378;2022-08-19T10:07:36;9.57;;;2.50;;
28176;SDS011;15461;41.652;9.378;2022-08-19T10:10:04;7.60;;;2.67;;
28176;SDS011;15461;41.652;9.378;2022-08-19T10:12:35;7.25;;;2.40;;
28176;SDS011;15461;41.652;9.378;2022-08-19T10:15:02;9.93;;;2.33;;
28176;SDS011;15461;41.652;9.378;2022-08-19T10:17:28;14.25;;;2.50;;
28176;SDS011;15461;41.652;9.378;2022-08-19T10:19:54;7.53;;;2.40;;
28176;SDS011;15461;41.652;9.378;2022-08-19T10:22:20;7.05;;;2.47;;
28176;SDS011;15461;41.652;9.378;2022-08-19T10:24:46;11.65;;;3.03;;
28176;SDS011;15461;41.652;9.378;2022-08-19T10:27:12;9.05;;;2.67;;
28176;SDS011;15461;41.652;9.378;2022-08-19T10:29:39;9.80;;;2.65;;
28176;SDS011;15461;41.652;9.378;2022-08-19T10:32:06;9.00;;;2.63;;
28176;SDS011;15461;41.652;9.378;2022-08-19T10:34:34;7.60;;;2.60;;
28176;SDS011;15461;41.652;9.378;2022-08-19T10:37:02;12.32;;;3.00;;
28176;SDS011;15461;41.652;9.378;2022-08-19T10:39:31;9.60;;;2.70;;
28176;SDS011;15461;41.652;9.378;2022-08-19T10:41:59;6.88;;;2.40;;
28176;SDS011;15461;41.652;9.378;2022-08-19T10:44:29;9.93;;;3.30;;
28176;SDS011;15461;41.652;9.378;2022-08-19T10:46:55;10.68;;;3.03;;
28176;SDS011;15461;41.652;9.378;2022-08-19T10:49:21;7.82;;;2.55;;
28176;SDS011;15461;41.652;9.378;2022-08-19T10:51:49;7.80;;;2.65;;
28176;SDS011;15461;41.652;9.378;2022-08-19T10:54:33;7.35;;;2.97;;
28176;SDS011;15461;41.652;9.378;2022-08-19T10:57:17;6.60;;;2.35;;
28176;SDS011;15461;41.652;9.378;2022-08-19T10:59:43;8.32;;;2.50;;
28176;SDS011;15461;41.652;9.378;2022-08-19T11:02:10;10.60;;;2.80;;
28176;SDS011;15461;41.652;9.378;2022-08-19T11:04:38;7.50;;;2.63;;
28176;SDS011;15461;41.652;9.378;2022-08-19T11:07:05;8.57;;;2.40;;
28176;SDS011;15461;41.652;9.378;2022-08-19T11:09:36;8.57;;;3.00;;
28176;SDS011;15461;41.652;9.378;2022-08-19T11:12:04;9.85;;;2.70;;
28176;SDS011;15461;41.652;9.378;2022-08-19T11:14:30;10.80;;;3.13;;
28176;SDS011;15461;41.652;9.378;2022-08-19T11:16:58;12.07;;;3.10;;
28176;SDS011;15461;41.652;9.378;2022-08-19T11:19:25;8.43;;;3.00;;
28176;SDS011;15461;41.652;9.378;2022-08-19T11:21:51;10.95;;;3.40;;
28176;SDS011;15461;41.652;9.378;2022-08-19T11:24:23;11.75;;;3.42;;
28176;SDS011;15461;41.652;9.378;2022-08-19T11:26:52;12.90;;;3.85;;
28176;SDS011;15461;41.652;9.378;2022-08-19T11:29:24;16.63;;;3.60;;
28176;SDS011;15461;41.652;9.378;2022-08-19T11:31:51;9.15;;;3.10;;
28176;SDS011;15461;41.652;9.378;2022-08-19T11:34:18;12.02;;;3.80;;
28176;SDS011;15461;41.652;9.378;2022-08-19T11:36:52;12.07;;;3.13;;
28176;SDS011;15461;41.652;9.378;2022-08-19T11:39:20;7.95;;;2.60;;
28176;SDS011;15461;41.652;9.378;2022-08-19T11:41:47;12.68;;;3.30;;
28176;SDS011;15461;41.652;9.378;2022-08-19T11:44:13;15.10;;;2.95;;
28176;SDS011;15461;41.652;9.378;2022-08-19T11:46:40;9.70;;;2.80;;
28176;SDS011;15461;41.652;9.378;2022-08-19T11:49:10;12.68;;;3.05;;
28176;SDS011;15461;41.652;9.378;2022-08-19T11:51:37;9.45;;;2.92;;
28176;SDS011;15461;41.652;9.378;2022-08-19T11:54:04;10.68;;;2.97;;
28176;SDS011;15461;41.652;9.378;2022-08-19T11:56:31;8.32;;;3.13;;
28176;SDS011;15461;41.652;9.378;2022-08-19T11:58:57;12.65;;;2.97;;
28176;SDS011;15461;41.652;9.378;2022-08-19T12:01:24;6.50;;;2.58;;
28176;SDS011;15461;41.652;9.378;2022-08-19T12:03:52;6.55;;;2.22;;
28176;SDS011;15461;41.652;9.378;2022-08-19T12:06:20;7.63;;;2.38;;
28176;SDS011;15461;41.652;9.378;2022-08-19T12:08:57;6.25;;;2.72;;
28176;SDS011;15461;41.652;9.378;2022-08-19T12:11:24;7.68;;;2.30;;
28176;SDS011;15461;41.652;9.378;2022-08-19T12:13:50;9.50;;;2.08;;
28176;SDS011;15461;41.652;9.378;2022-08-19T12:16:21;4.10;;;1.83;;
28176;SDS011;15461;41.652;9.378;2022-08-19T12:18:50;5.30;;;1.92;;
28176;SDS011;15461;41.652;9.378;2022-08-19T12:21:17;4.47;;;1.55;;
28176;SDS011;15461;41.652;9.378;2022-08-19T12:23:50;2.50;;;1.55;;
28176;SDS011;15461;41.652;9.378;2022-08-19T12:26:16;3.97;;;1.73;;
28176;SDS011;15461;41.652;9.378;2022-08-19T12:28:43;2.95;;;1.70;;
28176;SDS011;15461;41.652;9.378;2022-08-19T12:31:09;7.13;;;1.73;;
28176;SDS011;15461;41.652;9.378;2022-08-19T12:33:39;5.40;;;2.00;;
28176;SDS011;15461;41.652;9.378;2022-08-19T12:36:07;3.78;;;1.70;;
28176;SDS011;15461;41.652;9.378;2022-08-19T12:38:35;5.15;;;2.10;;
28176;SDS011;15461;41.652;9.378;2022-08-19T12:41:02;3.63;;;1.77;;
28176;SDS011;15461;41.652;9.378;2022-08-19T12:43:31;10.65;;;2.30;;
28176;SDS011;15461;41.652;9.378;2022-08-19T12:46:01;4.65;;;1.95;;
28176;SDS011;15461;41.652;9.378;2022-08-19T12:48:29;6.10;;;2.15;;
28176;SDS011;15461;41.652;9.378;2022-08-19T12:50:55;4.57;;;2.03;;
28176;SDS011;15461;41.652;9.378;2022-08-19T12:53:22;3.78;;;1.98;;
28176;SDS011;15461;41.652;9.378;2022-08-19T12:55:56;3.53;;;1.58;;
28176;SDS011;15461;41.652;9.378;2022-08-19T12:58:25;4.55;;;2.03;;
28176;SDS011;15461;41.652;9.378;2022-08-19T13:00:51;4.13;;;1.80;;
28176;SDS011;15461;41.652;9.378;2022-08-19T13:03:18;4.07;;;2.08;;
28176;SDS011;15461;41.652;9.378;2022-08-19T13:05:44;5.97;;;2.30;;
28176;SDS011;15461;41.652;9.378;2022-08-19T13:08:10;3.50;;;1.92;;
28176;SDS011;15461;41.652;9.378;2022-08-19T13:10:39;7.10;;;2.17;;
28176;SDS011;15461;41.652;9.378;2022-08-19T13:13:07;7.38;;;2.13;;
28176;SDS011;15461;41.652;9.378;2022-08-19T13:15:36;5.95;;;2.17;;
28176;SDS011;15461;41.652;9.378;2022-08-19T13:18:05;8.93;;;2.28;;
28176;SDS011;15461;41.652;9.378;2022-08-19T13:20:34;5.43;;;2.63;;
28176;SDS011;15461;41.652;9.378;2022-08-19T13:23:01;7.90;;;2.55;;
28176;SDS011;15461;41.652;9.378;2022-08-19T13:25:27;5.18;;;2.22;;
28176;SDS011;15461;41.652;9.378;2022-08-19T13:27:53;7.63;;;2.60;;
28176;SDS011;15461;41.652;9.378;2022-08-19T13:30:20;6.13;;;2.75;;
28176;SDS011;15461;41.652;9.378;2022-08-19T13:33:06;7.72;;;3.10;;
28176;SDS011;15461;41.652;9.378;2022-08-19T13:35:40;4.82;;;2.17;;
28176;SDS011;15461;41.652;9.378;2022-08-19T13:38:08;4.93;;;2.40;;
28176;SDS011;15461;41.652;9.378;2022-08-19T13:40:35;5.32;;;2.22;;
28176;SDS011;15461;41.652;9.378;2022-08-19T13:43:02;5.85;;;2.33;;
28176;SDS011;15461;41.652;9.378;2022-08-19T13:45:30;6.32;;;1.95;;
28176;SDS011;15461;41.652;9.378;2022-08-19T13:48:01;4.07;;;2.33;;
28176;SDS011;15461;41.652;9.378;2022-08-19T13:50:34;4.45;;;1.88;;
28176;SDS011;15461;41.652;9.378;2022-08-19T13:53:10;3.67;;;1.90;;
28176;SDS011;15461;41.652;9.378;2022-08-19T13:55:37;2.40;;;1.70;;
28176;SDS011;15461;41.652;9.378;2022-08-19T13:58:07;4.90;;;1.80;;
28176;SDS011;15461;41.652;9.378;2022-08-19T14:00:37;5.57;;;1.88;;
28176;SDS011;15461;41.652;9.378;2022-08-19T14:03:07;4.18;;;2.20;;
28176;SDS011;15461;41.652;9.378;2022-08-19T14:05:34;4.63;;;1.88;;
28176;SDS011;15461;41.652;9.378;2022-08-19T14:08:01;4.97;;;2.00;;
28176;SDS011;15461;41.652;9.378;2022-08-19T14:10:27;3.65;;;1.92;;
28176;SDS011;15461;41.652;9.378;2022-08-19T14:12:56;5.88;;;2.00;;
28176;SDS011;15461;41.652;9.378;2022-08-19T14:15:25;3.63;;;1.90;;
28176;SDS011;15461;41.652;9.378;2022-08-19T14:17:55;7.00;;;2.53;;
28176;SDS011;15461;41.652;9.378;2022-08-19T14:20:21;8.60;;;2.25;;
28176;SDS011;15461;41.652;9.378;2022-08-19T14:22:48;6.20;;;2.35;;
28176;SDS011;15461;41.652;9.378;2022-08-19T14:25:18;4.80;;;2.25;;
28176;SDS011;15461;41.652;9.378;2022-08-19T14:27:46;5.00;;;2.03;;
28176;SDS011;15461;41.652;9.378;2022-08-19T14:30:14;4.57;;;1.80;;
28176;SDS011;15461;41.652;9.378;2022-08-19T14:32:43;5.57;;;2.00;;
28176;SDS011;15461;41.652;9.378;2022-08-19T14:35:11;5.47;;;2.35;;
28176;SDS011;15461;41.652;9.378;2022-08-19T14:37:38;4.15;;;1.92;;
28176;SDS011;15461;41.652;9.378;2022-08-19T14:40:05;4.53;;;2.13;;
28176;SDS011;15461;41.652;9.378;2022-08-19T14:42:32;7.07;;;2.17;;
28176;SDS011;15461;41.652;9.378;2022-08-19T14:44:59;6.03;;;2.80;;
28176;SDS011;15461;41.652;9.378;2022-08-19T14:47:26;6.18;;;2.55;;
28176;SDS011;15461;41.652;9.378;2022-08-19T14:49:53;5.80;;;2.60;;
28176;SDS011;15461;41.652;9.378;2022-08-19T14:52:19;4.40;;;2.30;;
28176;SDS011;15461;41.652;9.378;2022-08-19T14:54:45;6.25;;;2.42;;
28176;SDS011;15461;41.652;9.378;2022-08-19T14:57:13;8.13;;;2.45;;
28176;SDS011;15461;41.652;9.378;2022-08-19T14:59:40;4.50;;;1.98;;
28176;SDS011;15461;41.652;9.378;2022-08-19T15:02:09;7.80;;;2.60;;
28176;SDS011;15461;41.652;9.378;2022-08-19T15:04:37;9.65;;;2.08;;
28176;SDS011;15461;41.652;9.378;2022-08-19T15:07:04;5.35;;;2.60;;